Time;durP1;ratioP1;P1;durP2;ratioP2;P2;SDS_P1;SDS_P2;PMS_P1;PMS_P2;Temp;Humidity;BMP_temperature;BMP_pressure;BME280_temperature;BME280_humidity;BME280_pressure;Samples;Min_cycle;Max_cycle;Signal;HPM_P1;HPM_P2
2023/05/18 00:02:04;;;;;;;7.78;2.83;;;6.90;99.90;;;;;;5094177;28;20488;-62
2023/05/18 00:04:33;;;;;;;8.57;2.78;;;6.90;99.90;;;;;;5125655;27;20097;-63
2023/05/18 00:07:02;;;;;;;10.43;3.35;;;6.90;99.90;;;;;;5093818;28;20047;-63
2023/05/18 00:09:29;;;;;;;8.43;3.40;;;6.90;99.90;;;;;;5092450;28;20039;-63
2023/05/18 00:11:57;;;;;;;6.57;2.40;;;6.80;99.90;;;;;;5125825;27;20048;-63
2023/05/18 00:14:23;;;;;;;7.28;2.90;;;6.80;99.90;;;;;;5093109;28;20058;-63
2023/05/18 00:16:48;;;;;;;8.85;2.88;;;6.80;99.90;;;;;;5126253;27;20488;-62
2023/05/18 00:19:15;;;;;;;9.02;2.97;;;6.80;99.90;;;;;;5126562;27;20044;-63
2023/05/18 00:21:41;;;;;;;7.50;3.03;;;6.80;99.90;;;;;;5126253;27;20134;-63
2023/05/18 00:24:09;;;;;;;8.05;3.15;;;6.70;99.90;;;;;;5075066;28;20453;-63
2023/05/18 00:26:40;;;;;;;9.13;2.58;;;6.70;99.90;;;;;;5126193;27;20085;-63
2023/05/18 00:29:06;;;;;;;6.28;2.60;;;6.70;99.90;;;;;;5075370;28;20510;-63
2023/05/18 00:31:37;;;;;;;7.40;2.65;;;6.70;99.90;;;;;;5125011;27;20036;-63
2023/05/18 00:34:03;;;;;;;10.85;2.90;;;6.70;99.90;;;;;;5126298;27;20036;-63
2023/05/18 00:36:30;;;;;;;12.55;3.50;;;6.70;99.90;;;;;;5125853;27;20093;-63
2023/05/18 00:38:56;;;;;;;7.10;2.67;;;6.80;99.90;;;;;;5092751;28;20435;-62
2023/05/18 00:41:22;;;;;;;7.65;3.03;;;6.80;99.90;;;;;;5092802;28;20392;-63
2023/05/18 00:43:47;;;;;;;10.20;3.90;;;6.80;99.90;;;;;;5092996;28;20052;-63
2023/05/18 00:46:13;;;;;;;9.23;2.92;;;6.80;99.90;;;;;;5124754;27;20122;-63
2023/05/18 00:48:38;;;;;;;8.45;2.97;;;6.80;99.90;;;;;;5125507;27;20036;-63
2023/05/18 00:51:04;;;;;;;7.53;2.75;;;6.90;99.90;;;;;;5092151;28;20036;-63
2023/05/18 00:53:32;;;;;;;9.82;2.80;;;7.00;99.90;;;;;;5091944;28;20075;-63
2023/05/18 00:55:58;;;;;;;10.32;3.17;;;7.00;99.90;;;;;;5093091;28;20040;-63
2023/05/18 00:58:25;;;;;;;10.93;3.88;;;7.00;99.90;;;;;;5125639;27;20481;-63
2023/05/18 01:00:51;;;;;;;10.13;3.55;;;7.10;99.90;;;;;;5125299;27;20069;-63
2023/05/18 01:03:20;;;;;;;7.90;3.20;;;7.10;99.90;;;;;;5092708;28;20036;-63
2023/05/18 01:05:49;;;;;;;9.43;3.70;;;7.20;99.90;;;;;;5074209;28;20385;-63
2023/05/18 01:08:18;;;;;;;11.13;3.75;;;7.20;99.90;;;;;;5091452;28;20051;-63
2023/05/18 01:10:45;;;;;;;9.70;3.60;;;7.20;99.90;;;;;;5125670;27;20393;-63
2023/05/18 01:13:21;;;;;;;9.35;4.15;;;7.20;99.90;;;;;;5124582;27;20051;-63
2023/05/18 01:15:51;;;;;;;6.95;3.15;;;7.30;99.90;;;;;;5092749;28;20036;-63
2023/05/18 01:18:43;;;;;;;10.32;3.92;;;7.30;99.90;;;;;;5091377;28;20032;-62
2023/05/18 01:21:32;;;;;;;8.43;3.33;;;7.30;99.90;;;;;;5091589;28;20565;-63
2023/05/18 01:24:27;;;;;;;8.27;3.08;;;7.30;99.90;;;;;;5092237;28;20069;-62
2023/05/18 01:26:56;;;;;;;7.07;3.38;;;7.40;99.90;;;;;;5090825;28;20050;-63
2023/05/18 01:29:29;;;;;;;11.15;2.97;;;7.30;99.90;;;;;;5124975;27;20036;-63
2023/05/18 01:31:54;;;;;;;8.48;3.05;;;7.30;99.90;;;;;;5125890;27;20070;-63
2023/05/18 01:34:20;;;;;;;5.95;2.67;;;7.30;99.90;;;;;;5091214;28;20476;-63
2023/05/18 01:36:46;;;;;;;8.98;2.75;;;7.30;99.90;;;;;;5092759;28;20435;-63
2023/05/18 01:39:12;;;;;;;5.50;2.70;;;7.30;99.90;;;;;;5091180;28;20048;-63
2023/05/18 01:42:04;;;;;;;7.18;3.00;;;7.30;99.90;;;;;;5091079;28;20381;-63
2023/05/18 01:44:38;;;;;;;9.48;3.13;;;7.40;99.90;;;;;;5091805;28;20493;-63
2023/05/18 01:47:12;;;;;;;9.02;2.80;;;7.40;99.90;;;;;;5125903;27;20077;-63
2023/05/18 01:49:55;;;;;;;6.27;2.30;;;7.40;99.90;;;;;;5092456;28;20059;-63
2023/05/18 01:52:28;;;;;;;8.68;2.55;;;7.40;99.90;;;;;;5124756;28;20047;-63
2023/05/18 01:54:59;;;;;;;6.78;2.72;;;7.40;99.90;;;;;;5091306;28;20028;-63
2023/05/18 01:57:27;;;;;;;6.97;2.85;;;7.50;99.90;;;;;;5111842;28;20092;-62
2023/05/18 01:59:54;;;;;;;6.28;2.90;;;7.50;99.90;;;;;;5112414;28;20039;-63
2023/05/18 02:02:20;;;;;;;7.35;2.92;;;7.60;99.90;;;;;;5093381;28;20048;-63
2023/05/18 02:04:46;;;;;;;7.57;2.90;;;7.60;99.90;;;;;;5112603;28;20050;-63
2023/05/18 02:07:11;;;;;;;6.43;2.67;;;7.60;99.90;;;;;;5111122;28;20040;-63
2023/05/18 02:09:37;;;;;;;7.57;2.50;;;7.60;99.90;;;;;;5111390;28;20027;-63
2023/05/18 02:12:03;;;;;;;7.90;2.53;;;7.60;99.90;;;;;;5111044;28;20436;-63
2023/05/18 02:14:28;;;;;;;5.13;2.60;;;7.60;99.90;;;;;;5112103;28;20407;-63
2023/05/18 02:16:56;;;;;;;7.75;2.63;;;7.60;99.90;;;;;;5111838;28;20111;-63
2023/05/18 02:19:24;;;;;;;6.60;3.05;;;7.70;99.90;;;;;;5111767;28;20484;-63
2023/05/18 02:21:50;;;;;;;7.85;3.25;;;7.70;99.90;;;;;;5111940;28;20131;-62
2023/05/18 02:24:17;;;;;;;11.02;3.33;;;7.70;99.90;;;;;;5110235;28;20126;-63
2023/05/18 02:26:43;;;;;;;6.82;2.80;;;7.70;99.90;;;;;;5111810;28;20036;-63
2023/05/18 02:29:10;;;;;;;9.40;2.83;;;7.70;99.90;;;;;;5103877;28;20050;-62
2023/05/18 02:31:37;;;;;;;7.53;3.63;;;7.70;99.90;;;;;;5072748;28;20044;-62
2023/05/18 02:34:03;;;;;;;7.47;3.55;;;7.70;99.90;;;;;;5107638;28;20071;-63
2023/05/18 02:36:35;;;;;;;6.40;3.28;;;7.70;99.90;;;;;;5092372;28;20071;-63
2023/05/18 02:39:05;;;;;;;12.55;4.20;;;7.70;99.90;;;;;;5094855;28;20111;-63
2023/05/18 02:41:32;;;;;;;7.82;3.17;;;7.70;99.90;;;;;;5094809;28;20046;-63
2023/05/18 02:43:58;;;;;;;5.80;3.38;;;7.70;99.90;;;;;;5094227;28;20056;-63
2023/05/18 02:46:24;;;;;;;12.25;3.90;;;7.70;99.90;;;;;;5094225;28;20115;-62
2023/05/18 02:48:50;;;;;;;6.35;3.17;;;7.80;99.90;;;;;;5094303;28;20047;-63
2023/05/18 02:51:16;;;;;;;5.55;3.00;;;7.70;99.90;;;;;;5076935;28;20434;-63
2023/05/18 02:53:44;;;;;;;8.27;3.33;;;7.70;99.90;;;;;;5115633;28;20040;-63
2023/05/18 02:56:11;;;;;;;9.13;3.35;;;7.70;99.90;;;;;;5115546;28;20036;-63
2023/05/18 02:58:37;;;;;;;6.38;3.05;;;7.70;99.90;;;;;;5114679;27;20065;-63
2023/05/18 03:01:06;;;;;;;8.40;3.83;;;7.70;99.90;;;;;;5115979;28;20046;-63
2023/05/18 03:03:33;;;;;;;7.88;2.97;;;7.80;99.90;;;;;;5113461;28;20118;-63
2023/05/18 03:06:01;;;;;;;10.13;3.42;;;7.80;99.90;;;;;;5114675;28;20185;-63
2023/05/18 03:08:27;;;;;;;5.97;3.30;;;7.70;99.90;;;;;;5113695;28;20449;-63
2023/05/18 03:10:54;;;;;;;9.27;3.35;;;7.70;99.90;;;;;;5115488;28;20079;-63
2023/05/18 03:13:20;;;;;;;7.93;3.13;;;7.70;99.90;;;;;;5113019;28;20119;-63
2023/05/18 03:15:46;;;;;;;11.27;3.65;;;7.70;99.90;;;;;;5114466;28;20382;-63
2023/05/18 03:18:12;;;;;;;10.27;4.10;;;7.70;99.90;;;;;;5115163;28;20083;-63
2023/05/18 03:20:38;;;;;;;7.70;3.67;;;7.70;99.90;;;;;;5113084;28;20135;-63
2023/05/18 03:23:04;;;;;;;7.75;3.38;;;7.80;99.90;;;;;;5114682;28;20398;-63
2023/05/18 03:25:31;;;;;;;9.05;3.03;;;7.70;99.90;;;;;;5114726;28;20081;-64
2023/05/18 03:27:58;;;;;;;11.38;4.18;;;7.70;99.90;;;;;;5114542;28;20119;-63
2023/05/18 03:30:23;;;;;;;9.02;3.35;;;7.80;99.90;;;;;;5114664;28;20039;-62
2023/05/18 03:32:49;;;;;;;10.20;3.05;;;7.80;99.90;;;;;;5115061;28;20445;-63
2023/05/18 03:35:15;;;;;;;7.57;3.78;;;7.80;99.90;;;;;;5112589;28;20036;-62
2023/05/18 03:37:41;;;;;;;11.15;3.85;;;7.80;99.90;;;;;;5114874;28;20054;-63
2023/05/18 03:40:12;;;;;;;11.48;4.25;;;7.80;99.90;;;;;;5114900;28;20040;-63
2023/05/18 03:42:39;;;;;;;8.85;3.45;;;7.80;99.90;;;;;;5113884;28;20070;-63
2023/05/18 03:45:06;;;;;;;7.80;2.97;;;7.90;99.90;;;;;;5113847;28;20517;-63
2023/05/18 03:47:32;;;;;;;6.72;3.75;;;7.90;99.90;;;;;;5094899;28;20047;-63
2023/05/18 03:49:58;;;;;;;6.75;3.17;;;7.90;99.90;;;;;;5114781;28;20096;-63
2023/05/18 03:52:24;;;;;;;9.80;2.90;;;7.90;99.90;;;;;;5114276;28;20038;-63
2023/05/18 03:54:50;;;;;;;9.98;3.20;;;7.90;99.90;;;;;;5112894;28;20043;-63
2023/05/18 03:57:16;;;;;;;7.18;3.45;;;7.90;99.90;;;;;;5114459;28;20063;-63
2023/05/18 03:59:43;;;;;;;10.82;3.78;;;7.90;99.90;;;;;;5113047;28;20104;-63
2023/05/18 04:02:10;;;;;;;6.90;3.80;;;7.90;99.90;;;;;;5113372;28;20039;-63
2023/05/18 04:04:36;;;;;;;7.90;4.32;;;7.90;99.90;;;;;;5111645;28;20498;-63
2023/05/18 04:07:04;;;;;;;8.18;3.97;;;8.00;99.90;;;;;;5111637;28;20071;-63
2023/05/18 04:09:31;;;;;;;9.38;3.90;;;8.00;99.90;;;;;;5111506;28;20502;-63
2023/05/18 04:11:57;;;;;;;5.95;3.40;;;7.90;99.90;;;;;;5113765;28;20402;-63
2023/05/18 04:14:23;;;;;;;8.93;3.72;;;8.00;99.90;;;;;;5113721;28;20032;-63
2023/05/18 04:16:51;;;;;;;9.93;4.35;;;8.00;99.90;;;;;;5112225;28;20040;-63
2023/05/18 04:19:17;;;;;;;9.65;4.07;;;8.00;99.90;;;;;;5112557;28;20039;-63
2023/05/18 04:21:46;;;;;;;8.40;3.85;;;8.00;99.90;;;;;;5113950;28;20043;-63
2023/05/18 04:24:13;;;;;;;11.90;4.18;;;8.00;99.90;;;;;;5111815;28;20055;-63
2023/05/18 04:26:40;;;;;;;8.98;4.38;;;8.00;99.90;;;;;;5111964;28;20052;-63
2023/05/18 04:29:06;;;;;;;11.38;3.45;;;8.00;99.90;;;;;;5112939;28;20040;-63
2023/05/18 04:31:33;;;;;;;6.07;2.70;;;8.00;99.90;;;;;;5112550;28;20034;-63
2023/05/18 04:33:59;;;;;;;9.13;3.60;;;8.10;99.90;;;;;;5112705;28;20385;-63
2023/05/18 04:36:29;;;;;;;11.13;4.07;;;8.10;99.90;;;;;;5113328;28;20038;-63
2023/05/18 04:39:02;;;;;;;6.63;3.05;;;8.10;99.90;;;;;;5107417;28;20082;-63
2023/05/18 04:41:27;;;;;;;8.00;3.53;;;8.10;99.90;;;;;;5092871;28;20043;-63
2023/05/18 04:43:53;;;;;;;6.47;3.08;;;8.10;99.90;;;;;;5091207;28;20067;-63
2023/05/18 04:46:22;;;;;;;7.25;3.13;;;8.20;99.90;;;;;;5108658;28;20027;-63
2023/05/18 04:48:48;;;;;;;7.70;3.40;;;8.20;99.90;;;;;;5112281;28;20051;-63
2023/05/18 04:51:20;;;;;;;8.85;4.32;;;8.20;99.90;;;;;;5112578;28;20063;-63
2023/05/18 04:53:48;;;;;;;7.70;4.00;;;8.20;99.90;;;;;;5112367;28;20035;-63
2023/05/18 04:56:15;;;;;;;9.05;4.15;;;8.20;99.90;;;;;;5095090;28;20082;-63
2023/05/18 04:58:44;;;;;;;11.52;5.13;;;8.30;99.90;;;;;;5111621;28;20047;-63
2023/05/18 05:01:11;;;;;;;10.18;4.18;;;8.30;99.90;;;;;;5092161;28;20035;-63
2023/05/18 05:03:37;;;;;;;7.95;3.97;;;8.30;99.90;;;;;;5089067;28;20046;-63
2023/05/18 05:06:03;;;;;;;7.82;3.88;;;8.30;99.90;;;;;;5105667;28;20051;-63
2023/05/18 05:08:28;;;;;;;7.65;3.97;;;8.30;99.90;;;;;;5108517;28;20048;-63
2023/05/18 05:10:54;;;;;;;9.73;3.40;;;8.30;99.90;;;;;;5110304;28;20046;-63
2023/05/18 05:13:20;;;;;;;7.47;3.53;;;8.30;99.90;;;;;;5090794;28;20043;-63
2023/05/18 05:15:46;;;;;;;8.70;3.75;;;8.30;99.90;;;;;;5109271;28;20070;-63
2023/05/18 05:18:11;;;;;;;11.90;5.38;;;8.40;99.90;;;;;;5109986;28;20500;-63
2023/05/18 05:20:37;;;;;;;8.65;4.22;;;8.40;99.90;;;;;;5107942;28;20059;-63
2023/05/18 05:23:03;;;;;;;5.95;3.25;;;8.50;99.90;;;;;;5092167;28;20047;-63
2023/05/18 05:25:28;;;;;;;6.72;3.58;;;8.50;99.90;;;;;;5108200;28;20073;-63
2023/05/18 05:27:54;;;;;;;8.20;3.47;;;8.60;99.90;;;;;;5103651;28;20052;-63
2023/05/18 05:30:20;;;;;;;6.95;2.88;;;8.60;99.90;;;;;;5071382;28;20044;-63
2023/05/18 05:32:45;;;;;;;9.98;3.05;;;8.60;99.90;;;;;;5120695;27;20047;-63
2023/05/18 05:35:11;;;;;;;10.23;3.53;;;8.70;99.90;;;;;;5121223;27;20051;-63
2023/05/18 05:37:37;;;;;;;7.45;3.78;;;8.70;99.90;;;;;;5122334;27;20044;-63
2023/05/18 05:40:05;;;;;;;8.25;3.55;;;8.80;99.90;;;;;;5088935;28;20044;-62
2023/05/18 05:42:31;;;;;;;10.50;2.92;;;8.80;99.90;;;;;;5121861;27;20056;-63
2023/05/18 05:44:56;;;;;;;7.82;2.95;;;8.90;99.90;;;;;;5089706;28;20553;-62
2023/05/18 05:47:22;;;;;;;7.85;2.92;;;9.00;99.90;;;;;;5086907;28;20047;-62
2023/05/18 05:49:47;;;;;;;8.88;2.65;;;9.00;99.90;;;;;;5122624;28;20044;-63
2023/05/18 05:52:13;;;;;;;9.23;2.85;;;9.10;99.90;;;;;;5089426;28;20035;-63
2023/05/18 05:54:40;;;;;;;8.48;2.78;;;9.20;99.90;;;;;;5089952;28;20478;-63
2023/05/18 05:57:05;;;;;;;7.45;2.42;;;9.20;99.90;;;;;;5092724;28;20040;-63
2023/05/18 05:59:31;;;;;;;5.40;2.25;;;9.20;99.90;;;;;;5089007;28;20040;-63
2023/05/18 06:01:57;;;;;;;7.88;2.85;;;9.30;99.90;;;;;;5123187;28;20047;-63
2023/05/18 06:04:23;;;;;;;5.63;2.70;;;9.30;99.90;;;;;;5090066;28;20036;-63
2023/05/18 06:06:48;;;;;;;6.53;2.65;;;9.30;99.90;;;;;;5092445;28;20112;-64
2023/05/18 06:09:14;;;;;;;8.38;2.45;;;9.40;99.90;;;;;;5091441;28;20047;-64
2023/05/18 06:11:40;;;;;;;6.72;2.88;;;9.50;99.90;;;;;;5128770;27;20075;-65
2023/05/18 06:14:06;;;;;;;8.05;2.22;;;9.50;99.90;;;;;;5095248;28;20072;-64
2023/05/18 06:16:32;;;;;;;6.43;2.38;;;9.50;99.90;;;;;;5076958;28;20050;-64
2023/05/18 06:18:57;;;;;;;6.47;2.50;;;9.60;99.90;;;;;;5096133;28;20043;-64
2023/05/18 06:21:23;;;;;;;9.73;2.47;;;9.70;99.90;;;;;;5128301;27;20100;-64
2023/05/18 06:23:49;;;;;;;6.45;2.70;;;9.70;99.90;;;;;;5095211;28;20421;-64
2023/05/18 06:26:15;;;;;;;9.15;2.90;;;9.80;99.90;;;;;;5095621;28;20134;-64
2023/05/18 06:28:41;;;;;;;6.40;2.92;;;9.90;99.90;;;;;;5128474;27;20119;-64
2023/05/18 06:31:07;;;;;;;6.18;2.65;;;9.90;99.90;;;;;;5095085;28;20119;-64
2023/05/18 06:33:33;;;;;;;7.50;1.98;;;10.00;99.90;;;;;;5127849;27;20393;-64
2023/05/18 06:35:59;;;;;;;6.63;2.28;;;10.00;99.90;;;;;;5094685;28;20047;-64
2023/05/18 06:38:24;;;;;;;6.22;2.38;;;10.10;99.90;;;;;;5094184;28;20040;-64
2023/05/18 06:40:50;;;;;;;6.88;2.72;;;10.20;99.90;;;;;;5128610;27;20412;-64
2023/05/18 06:43:16;;;;;;;7.80;2.15;;;10.20;99.90;;;;;;5094318;28;20148;-64
2023/05/18 06:45:41;;;;;;;8.52;2.40;;;10.20;99.90;;;;;;5095079;28;20044;-64
2023/05/18 06:48:07;;;;;;;6.25;2.15;;;10.30;99.90;;;;;;5095503;28;20040;-64
2023/05/18 06:50:33;;;;;;;9.55;1.95;;;10.30;99.90;;;;;;5127035;27;20040;-64
2023/05/18 06:52:58;;;;;;;5.50;2.03;;;10.40;99.90;;;;;;5128090;27;20044;-64
2023/05/18 06:55:24;;;;;;;10.25;2.38;;;10.40;99.90;;;;;;5127611;27;20094;-64
2023/05/18 06:57:51;;;;;;;6.93;2.38;;;10.40;99.90;;;;;;5094415;28;20052;-64
2023/05/18 07:00:17;;;;;;;7.35;2.33;;;10.50;99.90;;;;;;5093695;28;20055;-64
2023/05/18 07:02:44;;;;;;;10.52;2.58;;;10.50;99.90;;;;;;5127705;27;20039;-64
2023/05/18 07:05:10;;;;;;;7.00;2.90;;;10.60;99.90;;;;;;5094219;28;20051;-64
2023/05/18 07:07:36;;;;;;;6.72;2.50;;;10.70;99.90;;;;;;5093554;28;20040;-64
2023/05/18 07:10:03;;;;;;;9.82;2.95;;;10.70;99.90;;;;;;5094178;28;20051;-64
2023/05/18 07:12:29;;;;;;;8.43;2.85;;;10.70;99.90;;;;;;5092820;28;20055;-64
2023/05/18 07:14:54;;;;;;;15.07;3.30;;;10.80;99.90;;;;;;5093529;28;20458;-64
2023/05/18 07:17:20;;;;;;;8.35;3.13;;;10.80;99.90;;;;;;5093347;28;20051;-64
2023/05/18 07:19:46;;;;;;;7.13;2.78;;;10.90;99.90;;;;;;5075990;28;20492;-64
2023/05/18 07:22:12;;;;;;;6.85;2.95;;;10.90;99.90;;;;;;5093939;28;20040;-64
2023/05/18 07:24:37;;;;;;;9.00;2.80;;;10.90;99.90;;;;;;5093456;28;20044;-64
2023/05/18 07:27:03;;;;;;;7.25;2.20;;;10.90;99.90;;;;;;5093976;28;20148;-64
2023/05/18 07:29:29;;;;;;;6.35;2.33;;;11.00;99.90;;;;;;5075976;28;20040;-64
2023/05/18 07:31:55;;;;;;;5.88;1.90;;;11.00;99.90;;;;;;5127520;27;20036;-64
2023/05/18 07:34:20;;;;;;;7.45;2.13;;;11.00;99.90;;;;;;5093323;28;20036;-64
2023/05/18 07:36:46;;;;;;;7.60;2.42;;;11.10;99.90;;;;;;5127519;27;20040;-64
2023/05/18 07:39:17;;;;;;;8.07;2.78;;;11.00;99.90;;;;;;5094572;28;20377;-64
2023/05/18 07:41:50;;;;;;;7.95;2.17;;;11.10;99.90;;;;;;5126027;27;20039;-64
2023/05/18 07:44:15;;;;;;;13.05;2.45;;;11.20;99.90;;;;;;5127137;27;20056;-64
2023/05/18 07:46:42;;;;;;;5.22;2.10;;;11.40;99.90;;;;;;5126271;27;20369;-64
2023/05/18 07:49:08;;;;;;;8.77;2.85;;;11.50;99.90;;;;;;5094290;28;20476;-64
2023/05/18 07:51:34;;;;;;;5.38;1.90;;;11.50;99.90;;;;;;5126965;27;20067;-64
2023/05/18 07:53:59;;;;;;;4.13;2.10;;;11.50;99.90;;;;;;5093705;28;20035;-64
2023/05/18 07:56:25;;;;;;;7.55;2.45;;;11.50;99.90;;;;;;5093724;28;20107;-64
2023/05/18 07:58:51;;;;;;;8.50;2.72;;;11.50;99.90;;;;;;5100349;28;20108;-65
2023/05/18 08:01:18;;;;;;;7.53;2.47;;;11.50;99.90;;;;;;5078552;28;20071;-64
2023/05/18 08:03:44;;;;;;;5.35;2.40;;;11.50;99.90;;;;;;5093664;28;20074;-65
2023/05/18 08:06:10;;;;;;;4.90;1.85;;;11.40;99.90;;;;;;5092293;28;20051;-65
2023/05/18 08:08:36;;;;;;;8.07;2.30;;;11.40;99.90;;;;;;5091560;28;20040;-64
2023/05/18 08:11:03;;;;;;;6.15;2.08;;;11.40;99.90;;;;;;5075779;28;20469;-64
2023/05/18 08:13:29;;;;;;;11.68;3.08;;;11.50;99.90;;;;;;5091977;28;20043;-64
2023/05/18 08:15:55;;;;;;;7.93;2.72;;;11.60;99.90;;;;;;5093961;28;20374;-64
2023/05/18 08:18:21;;;;;;;8.43;2.72;;;11.60;99.90;;;;;;5112346;28;20076;-64
2023/05/18 08:20:52;;;;;;;9.02;3.17;;;11.60;99.90;;;;;;5112914;28;20043;-64
2023/05/18 08:23:18;;;;;;;8.82;2.70;;;11.70;99.90;;;;;;5111924;28;20051;-64
2023/05/18 08:25:44;;;;;;;11.38;2.97;;;11.70;99.90;;;;;;5113840;28;20091;-64
2023/05/18 08:28:12;;;;;;;7.40;3.00;;;11.70;99.90;;;;;;5113831;28;20387;-64
2023/05/18 08:30:38;;;;;;;11.27;3.55;;;11.70;99.90;;;;;;5112844;28;20180;-64
2023/05/18 08:33:03;;;;;;;6.53;2.75;;;11.60;99.90;;;;;;5112960;28;20077;-64
2023/05/18 08:35:29;;;;;;;8.27;2.50;;;11.60;99.90;;;;;;5093858;28;20047;-64
2023/05/18 08:37:55;;;;;;;10.23;2.60;;;11.60;99.90;;;;;;5074677;28;20044;-64
2023/05/18 08:40:21;;;;;;;11.13;2.90;;;11.50;99.90;;;;;;5093184;28;20043;-65
2023/05/18 08:43:01;;;;;;;7.47;2.60;;;11.50;99.90;;;;;;5092663;28;20091;-64
2023/05/18 08:45:26;;;;;;;11.30;3.95;;;11.60;99.90;;;;;;5091399;28;20048;-64
2023/05/18 08:47:56;;;;;;;10.85;2.88;;;11.70;99.90;;;;;;5075003;28;20046;-64
2023/05/18 08:50:25;;;;;;;5.95;2.50;;;11.70;99.90;;;;;;5091942;28;20032;-64
2023/05/18 08:52:54;;;;;;;8.57;2.90;;;11.80;99.90;;;;;;5092473;28;20032;-64
2023/05/18 08:55:21;;;;;;;7.70;3.03;;;11.80;99.90;;;;;;5093750;28;20552;-64
2023/05/18 08:57:54;;;;;;;8.40;2.53;;;11.80;99.90;;;;;;5092312;28;20039;-64
2023/05/18 09:00:21;;;;;;;7.80;2.55;;;11.90;99.90;;;;;;5091688;28;20097;-64
2023/05/18 09:02:47;;;;;;;6.35;2.55;;;12.00;99.90;;;;;;5092927;28;20500;-64
2023/05/18 09:05:14;;;;;;;8.25;2.42;;;12.00;99.90;;;;;;5092091;28;20044;-64
2023/05/18 09:07:41;;;;;;;8.02;2.78;;;12.10;99.90;;;;;;5092835;28;20044;-64
2023/05/18 09:10:10;;;;;;;8.05;2.50;;;12.00;99.90;;;;;;5091621;28;20072;-64
2023/05/18 09:12:36;;;;;;;8.40;2.53;;;12.10;99.90;;;;;;5090456;28;20119;-64
2023/05/18 09:15:02;;;;;;;6.10;2.75;;;12.10;99.90;;;;;;5092713;28;20115;-64
2023/05/18 09:17:28;;;;;;;8.90;2.85;;;12.20;99.90;;;;;;5092442;28;21265;-64
2023/05/18 09:19:54;;;;;;;11.55;2.95;;;12.10;99.70;;;;;;5092242;28;20032;-64
2023/05/18 09:22:19;;;;;;;6.50;2.70;;;12.20;99.90;;;;;;5091584;28;20040;-64
2023/05/18 09:24:46;;;;;;;7.78;3.63;;;12.20;99.90;;;;;;5091323;28;20545;-64
2023/05/18 09:27:11;;;;;;;7.95;2.42;;;12.40;99.90;;;;;;5091421;28;20079;-64
2023/05/18 09:29:54;;;;;;;6.85;2.42;;;12.30;99.60;;;;;;5091235;28;20508;-64
2023/05/18 09:32:21;;;;;;;11.25;2.85;;;12.40;99.60;;;;;;5092821;28;20028;-64
2023/05/18 09:34:48;;;;;;;6.05;2.80;;;12.40;99.50;;;;;;5091260;28;20051;-64
2023/05/18 09:37:20;;;;;;;7.75;2.35;;;12.50;99.50;;;;;;5090922;28;20089;-64
2023/05/18 09:40:01;;;;;;;6.57;2.63;;;12.70;99.50;;;;;;5092817;28;20442;-64
2023/05/18 09:42:37;;;;;;;9.60;2.50;;;12.90;98.90;;;;;;5091741;28;20054;-64
2023/05/18 09:45:23;;;;;;;7.15;2.50;;;13.00;98.90;;;;;;5092614;28;20563;-64
2023/05/18 09:47:49;;;;;;;9.23;2.53;;;12.90;98.80;;;;;;5102650;28;20051;-64
2023/05/18 09:50:18;;;;;;;6.95;2.63;;;13.00;98.90;;;;;;5099582;28;20038;-64
2023/05/18 09:52:46;;;;;;;6.72;2.60;;;13.10;99.00;;;;;;5090904;28;20072;-64
2023/05/18 09:55:14;;;;;;;9.23;2.97;;;13.10;98.90;;;;;;5091396;28;20388;-64
2023/05/18 09:57:43;;;;;;;8.02;2.85;;;13.20;99.00;;;;;;5091873;28;20550;-64
2023/05/18 10:00:11;;;;;;;6.95;3.45;;;13.10;98.70;;;;;;5091747;28;20078;-64
2023/05/18 10:02:40;;;;;;;9.98;3.13;;;13.10;98.40;;;;;;5090839;28;20492;-64
2023/05/18 10:05:16;;;;;;;5.30;2.60;;;13.10;98.30;;;;;;5091000;28;20055;-64
2023/05/18 10:07:42;;;;;;;8.70;2.70;;;13.10;98.20;;;;;;5091204;28;20495;-64
2023/05/18 10:10:09;;;;;;;9.07;2.90;;;13.10;97.70;;;;;;5090979;28;20040;-64
2023/05/18 10:12:39;;;;;;;12.38;3.25;;;13.10;98.10;;;;;;5090651;28;20032;-64
2023/05/18 10:15:08;;;;;;;13.23;3.58;;;13.20;97.90;;;;;;5094208;28;20569;-64
2023/05/18 10:17:36;;;;;;;7.25;2.60;;;13.30;97.70;;;;;;5110916;28;20043;-64
2023/05/18 10:20:07;;;;;;;9.10;2.58;;;13.30;97.90;;;;;;5112662;28;20040;-64
2023/05/18 10:22:35;;;;;;;7.30;2.70;;;13.40;98.10;;;;;;5111381;28;20378;-64
2023/05/18 10:25:03;;;;;;;9.65;2.70;;;13.40;98.40;;;;;;5111574;28;20050;-64
2023/05/18 10:27:32;;;;;;;7.38;2.63;;;13.50;98.10;;;;;;5098388;28;20052;-65
2023/05/18 10:29:58;;;;;;;8.82;2.80;;;13.50;98.10;;;;;;5108131;28;20092;-64
2023/05/18 10:32:24;;;;;;;8.32;2.95;;;13.40;97.20;;;;;;5108893;28;20036;-65
2023/05/18 10:34:52;;;;;;;9.02;2.53;;;13.20;96.90;;;;;;5090607;28;20101;-64
2023/05/18 10:37:22;;;;;;;12.48;2.55;;;13.10;97.30;;;;;;5090765;28;20043;-64
2023/05/18 10:39:50;;;;;;;8.05;2.95;;;13.10;97.60;;;;;;5092063;28;20079;-64
2023/05/18 10:42:17;;;;;;;8.10;2.75;;;13.20;97.60;;;;;;5090452;28;20063;-65
2023/05/18 10:44:46;;;;;;;8.57;2.50;;;13.30;97.30;;;;;;5089881;28;20040;-64
2023/05/18 10:47:14;;;;;;;6.18;2.22;;;13.40;96.60;;;;;;5091911;28;20051;-64
2023/05/18 10:49:42;;;;;;;5.90;2.38;;;13.40;97.00;;;;;;5090884;28;20428;-64
2023/05/18 10:52:16;;;;;;;9.50;2.70;;;13.40;96.90;;;;;;5092116;28;20040;-64
2023/05/18 10:54:42;;;;;;;7.35;2.55;;;13.40;96.70;;;;;;5095744;28;20040;-64
2023/05/18 10:57:12;;;;;;;7.47;2.65;;;13.30;97.40;;;;;;5105264;28;20361;-64
2023/05/18 10:59:43;;;;;;;9.10;2.90;;;13.40;97.60;;;;;;5113134;28;20051;-65
2023/05/18 11:02:15;;;;;;;9.88;2.80;;;13.50;97.80;;;;;;5115605;28;20420;-64
2023/05/18 11:04:41;;;;;;;9.60;2.38;;;13.50;97.30;;;;;;5098322;28;20058;-64
2023/05/18 11:07:11;;;;;;;7.80;2.40;;;13.40;97.50;;;;;;5101540;28;20039;-64
2023/05/18 11:09:41;;;;;;;5.68;3.08;;;13.40;97.40;;;;;;5115025;28;20082;-64
2023/05/18 11:12:12;;;;;;;8.15;2.47;;;13.40;97.70;;;;;;5114950;28;20511;-64
2023/05/18 11:14:48;;;;;;;6.97;2.53;;;13.40;97.60;;;;;;5114085;28;20051;-64
2023/05/18 11:17:24;;;;;;;8.60;3.47;;;13.50;98.20;;;;;;5114276;28;20038;-64
2023/05/18 11:20:08;;;;;;;10.07;2.70;;;13.40;97.70;;;;;;5114729;28;20404;-65
2023/05/18 11:22:45;;;;;;;7.03;2.45;;;13.50;98.20;;;;;;5115630;28;20071;-65
2023/05/18 11:25:26;;;;;;;6.63;3.17;;;13.40;97.90;;;;;;5100068;28;20096;-65
2023/05/18 11:27:54;;;;;;;6.47;2.10;;;13.50;98.50;;;;;;5114222;28;20102;-65
2023/05/18 11:30:40;;;;;;;6.85;2.72;;;13.40;98.00;;;;;;5113504;28;20113;-66
2023/05/18 11:33:10;;;;;;;11.00;3.00;;;13.50;98.30;;;;;;5079153;28;20055;-64
2023/05/18 11:35:55;;;;;;;8.20;2.42;;;13.50;98.20;;;;;;5094627;28;20040;-64
2023/05/18 11:38:22;;;;;;;6.93;2.65;;;13.60;98.00;;;;;;5092896;28;20125;-64
2023/05/18 11:40:49;;;;;;;11.27;3.10;;;13.50;98.20;;;;;;5092534;28;20058;-64
2023/05/18 11:43:23;;;;;;;6.63;2.50;;;13.50;98.10;;;;;;5092956;28;20143;-64
2023/05/18 11:45:55;;;;;;;6.78;2.60;;;13.50;97.70;;;;;;5092426;28;20050;-64
2023/05/18 11:48:30;;;;;;;8.32;2.50;;;13.50;97.90;;;;;;5092552;28;20040;-64
2023/05/18 11:50:56;;;;;;;9.30;2.80;;;13.60;98.10;;;;;;5093126;28;20473;-64
2023/05/18 11:53:24;;;;;;;7.82;2.67;;;13.80;98.70;;;;;;5074686;28;20035;-64
2023/05/18 11:55:55;;;;;;;10.27;3.50;;;14.00;98.90;;;;;;5094473;28;20073;-64
2023/05/18 11:58:23;;;;;;;9.35;3.35;;;14.20;99.00;;;;;;5075410;28;20051;-64
2023/05/18 12:00:50;;;;;;;10.77;3.30;;;14.10;98.10;;;;;;5092236;28;20044;-64
2023/05/18 12:03:16;;;;;;;8.82;3.25;;;14.00;98.60;;;;;;5093925;28;20118;-64
2023/05/18 12:05:48;;;;;;;10.32;3.88;;;14.00;98.10;;;;;;5092531;28;20040;-64
2023/05/18 12:08:20;;;;;;;6.72;3.15;;;14.00;98.10;;;;;;5091679;28;20040;-64
2023/05/18 12:10:47;;;;;;;6.88;2.83;;;14.00;97.60;;;;;;5094170;28;20051;-64
2023/05/18 12:13:16;;;;;;;9.43;3.10;;;13.80;98.30;;;;;;5093767;28;20047;-64
2023/05/18 12:15:45;;;;;;;9.10;3.78;;;13.80;98.30;;;;;;5092865;28;20093;-64
2023/05/18 12:18:11;;;;;;;8.82;3.08;;;13.70;98.50;;;;;;5092255;28;20079;-64
2023/05/18 12:20:38;;;;;;;8.55;3.13;;;13.50;98.50;;;;;;5092121;28;20067;-64
2023/05/18 12:23:04;;;;;;;7.78;2.72;;;13.60;99.20;;;;;;5091727;28;20048;-63
2023/05/18 12:25:30;;;;;;;8.82;3.20;;;13.80;99.70;;;;;;5100980;28;20062;-64
2023/05/18 12:27:56;;;;;;;7.82;2.50;;;13.80;99.40;;;;;;5097930;28;20082;-64
2023/05/18 12:30:44;;;;;;;8.27;2.42;;;13.90;99.40;;;;;;5115286;27;20040;-63
2023/05/18 12:33:11;;;;;;;6.82;2.33;;;13.90;99.40;;;;;;5124910;27;20080;-63
2023/05/18 12:35:37;;;;;;;8.85;3.28;;;13.80;99.00;;;;;;5096115;28;20122;-63
2023/05/18 12:38:02;;;;;;;9.77;3.13;;;13.80;98.80;;;;;;5101420;28;20575;-63
2023/05/18 12:40:45;;;;;;;15.18;2.67;;;13.70;98.60;;;;;;5090378;28;20147;-63
2023/05/18 12:43:11;;;;;;;6.95;2.65;;;13.70;98.70;;;;;;5096402;27;20055;-63
2023/05/18 12:45:37;;;;;;;8.10;2.53;;;13.70;98.80;;;;;;5100476;27;20051;-64
2023/05/18 12:48:04;;;;;;;10.70;3.40;;;13.70;98.90;;;;;;5105949;28;20047;-63
2023/05/18 12:50:30;;;;;;;9.23;4.90;;;13.70;98.90;;;;;;5106774;28;20040;-63
2023/05/18 12:52:56;;;;;;;9.30;2.70;;;13.70;99.20;;;;;;5100155;28;20062;-63
2023/05/18 12:55:23;;;;;;;6.80;2.22;;;13.80;99.10;;;;;;5088818;28;20039;-63